Time;durP1;ratioP1;P1;durP2;ratioP2;P2;SDS_P1;SDS_P2;PMS_P1;PMS_P2;Temp;Humidity;BMP_temperature;BMP_pressure;BME280_temperature;BME280_humidity;BME280_pressure;Samples;Min_cycle;Max_cycle;Signal;HPM_P1;HPM_P2
2023/05/27 00:02:39;;;;;;;17.50;5.07;;;;;;;13.62;76.33;101731.91;8358858;28;20399;-61
2023/05/27 00:06:39;;;;;;;16.88;4.72;;;;;;;13.65;76.02;101726.22;8360603;28;20029;-62
2023/05/27 00:10:40;;;;;;;22.55;5.07;;;;;;;13.49;77.84;101728.50;8359117;28;20043;-63
2023/05/27 00:14:41;;;;;;;18.30;4.60;;;;;;;13.03;79.39;101711.63;8361025;28;20033;-63
2023/05/27 00:18:41;;;;;;;19.90;5.20;;;;;;;12.65;82.71;101724.72;8359609;28;20413;-63
2023/05/27 00:22:42;;;;;;;26.58;5.20;;;;;;;12.42;83.44;101720.31;8360663;28;20060;-63
2023/05/27 00:26:42;;;;;;;17.88;5.50;;;;;;;12.24;83.43;101719.06;8360604;28;20055;-63
2023/05/27 00:30:43;;;;;;;28.45;5.93;;;;;;;12.13;84.59;101721.78;8360177;28;20037;-63
2023/05/27 00:34:44;;;;;;;19.63;5.75;;;;;;;11.81;86.40;101719.72;8360170;28;20127;-63
2023/05/27 00:38:45;;;;;;;20.35;5.95;;;;;;;11.69;85.47;101717.09;8359501;28;20125;-63
2023/05/27 00:42:45;;;;;;;25.95;5.65;;;;;;;11.53;88.67;101714.66;8360089;28;20040;-63
2023/05/27 00:46:47;;;;;;;20.02;5.68;;;;;;;11.52;88.77;101718.38;8360025;28;20098;-63
2023/05/27 00:50:48;;;;;;;16.63;5.57;;;;;;;11.21;89.93;101712.69;8357304;28;20032;-63
2023/05/27 00:54:49;;;;;;;20.67;5.60;;;;;;;11.74;88.34;101718.47;8357911;28;20039;-63
2023/05/27 00:58:49;;;;;;;20.98;5.70;;;;;;;11.93;87.49;101717.03;8358344;28;20446;-66
2023/05/27 01:02:50;;;;;;;17.20;5.47;;;;;;;11.96;86.14;101716.81;8360116;28;20104;-66
2023/05/27 01:07:06;;;;;;;23.50;5.28;;;;;;;11.96;86.60;101705.97;8359108;28;20385;-65
2023/05/27 01:11:10;;;;;;;22.15;5.40;;;;;;;11.66;87.30;101703.78;8359046;28;20552;-66
2023/05/27 01:15:11;;;;;;;26.98;5.53;;;;;;;11.75;86.41;101711.22;8352079;28;20040;-65
2023/05/27 01:19:18;;;;;;;19.58;6.00;;;;;;;11.58;87.73;101707.06;8331794;28;20072;-65
2023/05/27 01:23:18;;;;;;;17.67;5.43;;;;;;;11.46;87.84;101708.00;8324360;28;20411;-66
2023/05/27 01:27:20;;;;;;;15.95;5.30;;;;;;;11.38;87.91;101704.16;8325540;28;20038;-65
2023/05/27 01:31:31;;;;;;;20.15;5.45;;;;;;;11.24;88.63;101697.09;8325195;28;20037;-65
2023/05/27 01:35:42;;;;;;;23.95;5.43;;;;;;;11.31;88.25;101702.88;8326163;28;20033;-65
2023/05/27 01:39:44;;;;;;;22.95;6.15;;;;;;;11.41;88.24;101693.94;8349010;28;20060;-65
2023/05/27 01:43:45;;;;;;;23.75;5.68;;;;;;;11.36;88.40;101696.16;8358184;28;20065;-65
2023/05/27 01:47:45;;;;;;;30.27;6.13;;;;;;;11.54;87.08;101692.03;8358351;28;20561;-65
2023/05/27 01:51:46;;;;;;;21.70;5.88;;;;;;;11.34;87.95;101694.53;8358201;28;20450;-65
2023/05/27 01:55:47;;;;;;;19.30;5.65;;;;;;;11.11;88.97;101696.28;8358265;28;20037;-66
2023/05/27 01:59:47;;;;;;;19.20;6.18;;;;;;;11.22;88.59;101693.63;8357741;28;20033;-65
2023/05/27 02:03:48;;;;;;;24.92;6.63;;;;;;;11.18;89.64;101692.13;8358453;28;20067;-65
2023/05/27 02:07:48;;;;;;;18.13;6.28;;;;;;;11.23;88.51;101686.38;8357716;28;20061;-65
2023/05/27 02:11:49;;;;;;;17.17;5.35;;;;;;;11.27;88.24;101685.16;8357218;28;20206;-65
2023/05/27 02:15:50;;;;;;;23.50;5.60;;;;;;;11.36;88.58;101685.31;8356999;28;20060;-65
2023/05/27 02:19:51;;;;;;;19.35;5.90;;;;;;;11.22;88.63;101682.78;8357288;28;20067;-65
2023/05/27 02:23:51;;;;;;;17.27;5.82;;;;;;;11.30;88.46;101669.53;8357341;28;20064;-65
2023/05/27 02:27:52;;;;;;;20.05;6.65;;;;;;;11.33;88.33;101680.13;8357638;28;20036;-65
2023/05/27 02:31:52;;;;;;;18.80;5.68;;;;;;;11.30;88.55;101674.97;8356405;28;20059;-65
2023/05/27 02:35:53;;;;;;;27.27;6.30;;;;;;;11.30;88.57;101668.66;8355936;28;20819;-65
2023/05/27 02:39:56;;;;;;;22.55;6.20;;;;;;;11.20;88.88;101673.06;8356145;28;20048;-65
2023/05/27 02:43:56;;;;;;;29.23;7.00;;;;;;;10.99;90.16;101675.56;8355747;28;20124;-65
2023/05/27 02:48:00;;;;;;;23.30;6.60;;;;;;;11.03;90.56;101670.75;8355617;28;20585;-65
2023/05/27 02:52:00;;;;;;;24.92;6.82;;;;;;;11.10;89.98;101667.47;8355647;28;20475;-64
2023/05/27 02:56:01;;;;;;;22.52;6.20;;;;;;;11.07;90.11;101661.44;8356261;28;20123;-65
2023/05/27 03:00:03;;;;;;;21.55;5.50;;;;;;;11.13;89.43;101661.84;8356206;28;20064;-64
2023/05/27 03:04:04;;;;;;;30.23;6.75;;;;;;;11.11;89.46;101668.34;8356042;28;20048;-64
2023/05/27 03:08:06;;;;;;;31.70;6.97;;;;;;;11.17;89.08;101676.00;8355778;28;20419;-64
2023/05/27 03:12:06;;;;;;;33.40;7.78;;;;;;;11.17;88.93;101668.75;8356088;28;20140;-64
2023/05/27 03:16:07;;;;;;;27.88;6.18;;;;;;;11.12;88.88;101670.94;8355967;28;20037;-64
2023/05/27 03:20:08;;;;;;;25.60;5.93;;;;;;;11.03;89.92;101670.75;8354232;28;20426;-64
2023/05/27 03:24:08;;;;;;;21.02;7.10;;;;;;;10.92;90.06;101654.47;8354138;28;20052;-65
2023/05/27 03:28:09;;;;;;;18.80;6.07;;;;;;;10.82;90.86;101661.53;8353942;28;20149;-64
2023/05/27 03:32:10;;;;;;;20.08;6.30;;;;;;;10.41;92.69;101658.31;8354486;28;20033;-64
2023/05/27 03:36:10;;;;;;;21.45;5.60;;;;;;;10.43;93.27;101654.53;8351363;28;20044;-65
2023/05/27 03:40:11;;;;;;;28.42;6.43;;;;;;;10.40;93.52;101659.31;8321024;28;20037;-64
2023/05/27 03:44:12;;;;;;;21.13;6.53;;;;;;;10.42;93.14;101652.81;8321700;28;20045;-65
2023/05/27 03:48:12;;;;;;;29.17;5.97;;;;;;;10.32;93.20;101661.69;8322859;28;20049;-64
2023/05/27 03:52:14;;;;;;;20.60;6.07;;;;;;;10.22;93.90;101652.53;8337983;28;20045;-65
2023/05/27 03:56:14;;;;;;;21.58;6.60;;;;;;;10.12;96.30;101654.19;8355651;28;20068;-61
2023/05/27 04:00:17;;;;;;;25.08;6.35;;;;;;;10.09;95.24;101651.69;8353537;28;20037;-63
2023/05/27 04:04:25;;;;;;;18.85;6.13;;;;;;;9.92;96.07;101658.25;8321943;28;20094;-63
2023/05/27 04:08:27;;;;;;;22.05;6.22;;;;;;;10.14;96.36;101658.50;8326530;28;20037;-64
2023/05/27 04:12:28;;;;;;;23.40;6.45;;;;;;;10.22;95.24;101656.09;8354825;28;20040;-63
2023/05/27 04:16:30;;;;;;;26.13;6.82;;;;;;;10.56;93.19;101639.16;8354152;28;22795;-64
2023/05/27 04:20:37;;;;;;;22.15;5.90;;;;;;;10.91;91.97;101645.50;8353947;28;20495;-63
2023/05/27 04:24:39;;;;;;;17.38;5.18;;;;;;;11.16;89.35;101633.69;8354107;28;20044;-64
2023/05/27 04:28:40;;;;;;;19.50;6.47;;;;;;;11.14;90.36;101641.94;8354509;28;20029;-63
2023/05/27 04:32:41;;;;;;;21.85;5.97;;;;;;;11.52;90.31;101647.06;8354661;28;20060;-61
2023/05/27 04:36:42;;;;;;;21.23;6.20;;;;;;;11.63;89.05;101650.72;8355677;28;20037;-61
2023/05/27 04:40:52;;;;;;;31.20;6.78;;;;;;;11.67;88.55;101645.91;8356772;28;20032;-61
2023/05/27 04:45:06;;;;;;;29.33;6.38;;;;;;;11.98;87.28;101655.22;8361126;28;20048;-61
2023/05/27 04:49:08;;;;;;;21.08;6.35;;;;;;;12.23;86.93;101649.56;8360506;28;20064;-61
2023/05/27 04:53:08;;;;;;;20.48;6.28;;;;;;;12.18;86.10;101651.75;8360057;28;20503;-61
2023/05/27 04:57:09;;;;;;;21.73;7.10;;;;;;;12.14;87.47;101677.41;8356233;28;20510;-62
2023/05/27 05:01:16;;;;;;;25.85;7.68;;;;;;;12.10;88.46;101676.78;8346905;28;20986;-62
2023/05/27 05:05:18;;;;;;;19.08;6.20;;;;;;;12.00;89.04;101675.78;8327445;28;20048;-61
2023/05/27 05:09:21;;;;;;;23.95;6.47;;;;;;;12.42;88.17;101666.06;8350108;28;20063;-61
2023/05/27 05:13:21;;;;;;;21.50;6.40;;;;;;;12.66;86.27;101658.63;8358384;28;20035;-61
2023/05/27 05:17:24;;;;;;;22.20;6.40;;;;;;;13.04;85.68;101659.91;8357536;28;20036;-61
2023/05/27 05:21:24;;;;;;;23.30;6.03;;;;;;;13.22;83.14;101662.94;8359703;28;20518;-61
2023/05/27 05:25:26;;;;;;;22.48;5.82;;;;;;;13.54;82.12;101659.19;8359436;28;20029;-61
2023/05/27 05:29:29;;;;;;;23.92;5.50;;;;;;;13.79;83.36;101660.66;8359176;28;20538;-61
2023/05/27 05:33:31;;;;;;;23.63;6.63;;;;;;;14.08;80.29;101658.97;8357049;28;20041;-61
2023/05/27 05:37:32;;;;;;;21.38;6.90;;;;;;;14.11;80.21;101658.69;8359340;28;20080;-64
2023/05/27 05:41:33;;;;;;;26.95;6.28;;;;;;;14.14;80.31;101663.00;8348293;28;20052;-64
2023/05/27 05:45:34;;;;;;;24.58;7.03;;;;;;;14.13;79.27;101673.03;8356296;28;20407;-64
2023/05/27 05:49:36;;;;;;;21.45;6.10;;;;;;;14.37;78.40;101673.63;8354522;28;20037;-64
2023/05/27 05:53:37;;;;;;;24.17;6.80;;;;;;;14.38;77.41;101678.06;8355652;28;20033;-64
2023/05/27 05:57:37;;;;;;;26.00;5.90;;;;;;;14.55;77.23;101671.94;8358142;28;20116;-63
2023/05/27 06:01:39;;;;;;;20.90;6.45;;;;;;;14.72;77.92;101665.84;8356417;28;20037;-63
2023/05/27 06:05:40;;;;;;;31.65;7.38;;;;;;;14.89;76.72;101667.91;8343043;28;20043;-63
2023/05/27 06:09:41;;;;;;;28.10;6.43;;;;;;;15.06;75.80;101671.78;8333062;28;20530;-63
2023/05/27 06:13:50;;;;;;;22.48;7.45;;;;;;;15.13;75.25;101671.06;8333869;28;20082;-63
2023/05/27 06:17:53;;;;;;;25.20;7.35;;;;;;;15.18;74.29;101666.06;8344191;28;20044;-64
2023/05/27 06:21:54;;;;;;;20.15;6.70;;;;;;;15.38;73.24;101659.69;8354139;28;20618;-63
2023/05/27 06:26:14;;;;;;;25.13;6.45;;;;;;;15.57;74.08;101661.50;8352879;28;20064;-64
2023/05/27 06:30:21;;;;;;;24.95;6.88;;;;;;;15.81;73.19;101650.13;8355311;28;20037;-64
2023/05/27 06:34:23;;;;;;;19.83;6.63;;;;;;;15.92;72.45;101649.97;8354914;28;20304;-64
2023/05/27 06:38:23;;;;;;;24.05;6.82;;;;;;;15.92;72.06;101652.72;8354043;28;20083;-64
2023/05/27 06:42:26;;;;;;;28.40;7.72;;;;;;;16.31;71.26;101654.31;8353753;28;20377;-61
2023/05/27 06:46:35;;;;;;;18.38;6.35;;;;;;;16.72;71.56;101642.94;8354334;28;20033;-61
2023/05/27 06:50:41;;;;;;;21.02;7.30;;;;;;;16.69;70.51;101648.69;8354544;28;20116;-61
2023/05/27 06:54:41;;;;;;;22.58;6.93;;;;;;;16.74;71.51;101644.47;8352454;28;20039;-61
2023/05/27 06:59:02;;;;;;;23.48;6.10;;;;;;;16.98;69.70;101643.91;8351887;28;20045;-61
2023/05/27 07:03:03;;;;;;;27.13;6.20;;;;;;;17.20;68.57;101635.28;8352725;28;20064;-61
2023/05/27 07:07:04;;;;;;;24.52;5.82;;;;;;;17.47;68.33;101640.66;8356556;28;20033;-61
2023/05/27 07:11:04;;;;;;;25.92;7.47;;;;;;;17.27;68.16;101628.16;8356836;28;20029;-61
2023/05/27 07:15:06;;;;;;;23.98;6.65;;;;;;;17.62;67.53;101630.88;8347510;28;20043;-64
2023/05/27 07:19:07;;;;;;;21.73;6.35;;;;;;;17.82;65.87;101629.69;8354931;28;20083;-64
2023/05/27 07:23:16;;;;;;;19.30;6.22;;;;;;;17.90;66.58;101637.09;8356486;28;20047;-63
2023/05/27 07:27:20;;;;;;;27.63;6.70;;;;;;;18.16;66.50;101633.31;8348015;28;20135;-63
2023/05/27 07:31:29;;;;;;;20.30;7.35;;;;;;;18.07;65.39;101630.69;8353369;28;20055;-63
2023/05/27 07:35:34;;;;;;;28.40;6.45;;;;;;;17.91;66.98;101612.28;8370602;28;20048;-63
2023/05/27 07:39:34;;;;;;;27.63;7.32;;;;;;;18.48;65.72;101606.13;8354430;28;20104;-63
2023/05/27 07:43:34;;;;;;;20.10;6.78;;;;;;;18.65;62.79;101601.56;8349468;28;20040;-63
2023/05/27 07:47:35;;;;;;;25.83;6.80;;;;;;;18.51;64.27;101594.00;8339026;28;20156;-63
2023/05/27 07:51:36;;;;;;;21.05;7.13;;;;;;;18.70;64.60;101591.81;8325007;28;20216;-63
2023/05/27 07:55:37;;;;;;;18.30;6.10;;;;;;;18.75;62.39;101580.34;8346885;28;20079;-63
2023/05/27 07:59:38;;;;;;;23.13;6.75;;;;;;;18.67;61.88;101575.69;8329633;28;20071;-63
2023/05/27 08:03:39;;;;;;;23.38;6.88;;;;;;;18.41;63.71;101565.84;8347706;28;20095;-63
2023/05/27 08:07:52;;;;;;;25.47;6.37;;;;;;;19.07;62.25;101567.59;8349405;28;20327;-63
2023/05/27 08:12:13;;;;;;;17.05;5.88;;;;;;;19.25;60.74;101562.75;8314286;28;20744;-63
2023/05/27 08:16:22;;;;;;;21.60;6.60;;;;;;;19.43;62.05;101563.50;8328509;28;20038;-63
2023/05/27 08:20:37;;;;;;;22.00;5.40;;;;;;;19.43;59.59;101552.50;8338362;28;20146;-63
2023/05/27 08:24:55;;;;;;;16.63;4.78;;;;;;;19.49;59.60;101542.75;8344545;28;20583;-63
2023/05/27 08:29:16;;;;;;;19.20;5.25;;;;;;;19.71;58.30;101532.94;8355826;28;20037;-63
2023/05/27 08:33:28;;;;;;;13.10;5.00;;;;;;;19.60;58.67;101538.81;8356729;28;20029;-61
2023/05/27 08:37:29;;;;;;;20.20;5.72;;;;;;;19.62;58.62;101523.00;8352651;28;20108;-61
2023/05/27 08:41:30;;;;;;;19.67;5.45;;;;;;;20.11;57.98;101521.81;8354667;28;20040;-61
2023/05/27 08:45:33;;;;;;;16.83;4.78;;;;;;;20.43;59.62;101521.72;8353221;28;20591;-61
2023/05/27 08:49:33;;;;;;;16.67;4.82;;;;;;;20.45;56.47;101519.63;8355509;28;20090;-61
2023/05/27 08:53:35;;;;;;;20.27;5.28;;;;;;;20.41;55.82;101512.78;8354701;28;20036;-61
2023/05/27 08:57:37;;;;;;;19.73;5.03;;;;;;;20.64;55.94;101510.94;8341332;28;20034;-61
2023/05/27 09:01:39;;;;;;;16.55;4.90;;;;;;;20.87;57.71;101520.94;8354640;28;20056;-61
2023/05/27 09:05:40;;;;;;;20.02;5.35;;;;;;;20.99;56.45;101513.13;8322069;28;20052;-61
2023/05/27 09:09:40;;;;;;;15.77;5.30;;;;;;;21.30;57.05;101513.91;8351333;28;20045;-61
2023/05/27 09:13:42;;;;;;;20.65;5.97;;;;;;;21.49;54.80;101505.09;8353962;28;20063;-61
2023/05/27 09:17:44;;;;;;;23.52;6.03;;;;;;;21.29;57.04;101503.94;8321559;28;20040;-61
2023/05/27 09:21:45;;;;;;;24.40;6.57;;;;;;;21.23;55.57;101493.69;8321550;28;20393;-61
2023/05/27 09:25:46;;;;;;;18.65;5.43;;;;;;;21.77;56.31;101497.13;8349708;28;20064;-64
2023/05/27 09:29:47;;;;;;;13.35;5.10;;;;;;;21.65;54.09;101480.16;8352446;28;20459;-60
2023/05/27 09:33:47;;;;;;;20.17;6.25;;;;;;;22.05;56.40;101482.47;8351266;28;20039;-60
2023/05/27 09:37:48;;;;;;;16.60;4.80;;;;;;;21.98;52.60;101488.94;8352967;28;20044;-60
2023/05/27 09:41:52;;;;;;;21.17;5.97;;;;;;;22.14;53.31;101473.06;8341034;28;20033;-61
2023/05/27 09:46:00;;;;;;;23.85;5.85;;;;;;;22.04;52.82;101469.75;8349618;28;20357;-61
2023/05/27 09:50:02;;;;;;;16.63;5.13;;;;;;;22.69;54.33;101467.81;8330029;28;20045;-60
2023/05/27 09:54:03;;;;;;;16.85;4.65;;;;;;;23.27;51.44;101458.44;8316918;28;20149;-61
2023/05/27 09:58:04;;;;;;;19.42;4.90;;;;;;;23.82;49.92;101463.06;8331833;28;20033;-61
2023/05/27 10:02:06;;;;;;;21.80;4.45;;;;;;;24.86;46.85;101455.22;8347369;28;20475;-61
2023/05/27 10:06:08;;;;;;;19.95;4.22;;;;;;;25.93;46.37;101440.88;8331764;28;20488;-61
2023/05/27 10:10:11;;;;;;;15.80;4.13;;;;;;;27.33;44.54;101441.59;8344805;28;20537;-61
2023/05/27 10:14:12;;;;;;;17.02;4.32;;;;;;;27.48;44.20;101436.53;8347762;28;20037;-61
2023/05/27 10:18:22;;;;;;;13.75;3.72;;;;;;;27.42;43.78;101434.66;8332928;28;20041;-61
2023/05/27 10:22:23;;;;;;;13.68;4.53;;;;;;;28.13;42.39;101421.91;8333941;28;20041;-61
2023/05/27 10:26:33;;;;;;;16.58;4.22;;;;;;;27.92;43.11;101427.94;8339326;28;20045;-61
2023/05/27 10:30:48;;;;;;;11.70;3.63;;;;;;;28.72;41.75;101433.09;8336859;28;20364;-61
2023/05/27 10:34:52;;;;;;;14.52;4.10;;;;;;;28.06;41.37;101415.59;8350265;28;20037;-61
2023/05/27 10:38:56;;;;;;;15.30;4.70;;;;;;;28.45;40.25;101417.88;8349518;28;20264;-61
2023/05/27 10:43:00;;;;;;;13.80;3.83;;;;;;;28.38;41.16;101408.75;8345816;28;20491;-61
2023/05/27 10:47:03;;;;;;;18.13;4.38;;;;;;;28.34;39.74;101413.09;8341045;28;20045;-61
2023/05/27 10:51:03;;;;;;;15.75;4.88;;;;;;;28.22;40.56;101399.13;8347056;28;20033;-62
2023/05/27 10:55:05;;;;;;;17.30;4.43;;;;;;;28.03;40.63;101385.47;8350004;28;20242;-62
2023/05/27 10:59:14;;;;;;;13.23;3.83;;;;;;;28.51;40.54;101387.16;8348212;28;20044;-59
2023/05/27 11:03:19;;;;;;;12.45;4.00;;;;;;;28.57;39.94;101385.38;8348809;28;20039;-59
2023/05/27 11:07:21;;;;;;;12.05;4.30;;;;;;;28.74;40.63;101379.97;8344982;28;20511;-59
2023/05/27 11:11:22;;;;;;;16.13;3.83;;;;;;;29.65;38.52;101373.69;8348745;28;20503;-59
2023/05/27 11:15:23;;;;;;;16.73;3.95;;;;;;;29.08;40.18;101385.63;8350216;28;20491;-62
2023/05/27 11:19:23;;;;;;;13.13;4.63;;;;;;;28.73;38.15;101368.00;8348087;28;20466;-60
2023/05/27 11:23:42;;;;;;;13.80;4.07;;;;;;;28.90;39.07;101357.84;8349643;28;20467;-58
2023/05/27 11:27:43;;;;;;;13.32;4.30;;;;;;;29.60;38.61;101351.22;8340976;28;20045;-58
2023/05/27 11:31:47;;;;;;;14.93;4.23;;;;;;;28.74;39.43;101352.13;8347249;28;20503;-59
2023/05/27 11:35:47;;;;;;;10.80;3.70;;;;;;;29.19;40.13;101339.38;8348381;28;20792;-58
2023/05/27 11:39:52;;;;;;;12.38;3.92;;;;;;;29.79;38.05;101330.47;8348024;28;20445;-59
2023/05/27 11:44:03;;;;;;;8.77;3.50;;;;;;;29.67;37.68;101328.81;8348694;28;20039;-58
2023/05/27 11:48:04;;;;;;;13.95;4.00;;;;;;;29.38;37.24;101315.84;8345770;28;20345;-58
2023/05/27 11:52:05;;;;;;;10.73;3.80;;;;;;;29.46;39.04;101313.53;8355737;28;20151;-58
2023/05/27 11:56:05;;;;;;;12.43;3.60;;;;;;;29.39;38.00;101296.09;8356130;28;20511;-63
2023/05/27 12:00:07;;;;;;;8.90;3.50;;;;;;;29.03;37.45;101307.47;8356086;28;20071;-64
2023/05/27 12:04:08;;;;;;;12.82;3.63;;;;;;;28.16;39.35;101296.28;8355871;28;20037;-64
2023/05/27 12:08:08;;;;;;;12.45;3.80;;;;;;;26.08;42.40;101285.38;8371404;28;20052;-64
2023/05/27 12:12:09;;;;;;;12.50;4.22;;;;;;;25.27;43.92;101281.44;8356063;28;20380;-65
2023/05/27 12:16:10;;;;;;;17.30;4.13;;;;;;;24.52;43.82;101278.34;8350565;28;20054;-63
2023/05/27 12:20:11;;;;;;;13.13;3.63;;;;;;;24.58;43.16;101271.97;8353253;28;20052;-64
2023/05/27 12:24:11;;;;;;;12.80;3.67;;;;;;;24.71;43.25;101264.53;8353933;28;20067;-64
2023/05/27 12:28:12;;;;;;;12.65;3.67;;;;;;;25.03;43.95;101263.63;8351554;28;20128;-64
2023/05/27 12:32:12;;;;;;;16.42;4.28;;;;;;;24.52;44.28;101264.50;8353760;28;20479;-59
2023/05/27 12:36:13;;;;;;;14.55;4.18;;;;;;;24.40;43.50;101255.16;8340189;28;20132;-60
2023/05/27 12:40:14;;;;;;;12.75;3.35;;;;;;;24.26;42.85;101242.38;8353393;28;20041;-59
2023/05/27 12:44:15;;;;;;;14.75;3.50;;;;;;;24.58;43.70;101228.53;8350658;28;20037;-59
2023/05/27 12:48:17;;;;;;;14.63;3.25;;;;;;;24.73;42.62;101233.91;8353728;28;20039;-60
2023/05/27 12:52:17;;;;;;;9.10;3.42;;;;;;;24.45;40.67;101230.47;8353821;28;20470;-59
2023/05/27 12:56:18;;;;;;;9.10;3.35;;;;;;;25.07;42.77;101219.75;8353872;28;20037;-59
2023/05/27 13:00:20;;;;;;;11.52;3.20;;;;;;;25.34;40.71;101207.53;8350643;28;20412;-61
2023/05/27 13:04:20;;;;;;;11.40;4.03;;;;;;;25.05;41.24;101216.34;8352497;28;20040;-58
2023/05/27 13:08:21;;;;;;;10.25;3.80;;;;;;;24.77;42.12;101207.50;8350506;28;20044;-58
2023/05/27 13:12:21;;;;;;;10.20;3.17;;;;;;;24.61;41.06;101202.38;8350231;28;20051;-58
2023/05/27 13:16:22;;;;;;;10.15;3.55;;;;;;;24.64;42.08;101199.19;8349825;28;20036;-58
2023/05/27 13:20:23;;;;;;;11.43;3.70;;;;;;;24.64;41.26;101190.91;8352285;28;20150;-59
2023/05/27 13:24:24;;;;;;;9.60;3.40;;;;;;;24.93;44.82;101195.94;8352462;28;20061;-58
2023/05/27 13:28:25;;;;;;;9.57;3.47;;;;;;;24.87;42.39;101191.28;8350085;28;20041;-58
2023/05/27 13:32:26;;;;;;;11.98;4.50;;;;;;;24.68;40.25;101184.75;8348815;28;20041;-58
2023/05/27 13:36:26;;;;;;;11.50;3.47;;;;;;;24.72;42.10;101176.84;8351699;28;20041;-58
2023/05/27 13:40:26;;;;;;;11.75;3.55;;;;;;;24.88;41.99;101181.91;8352258;28;20450;-58
2023/05/27 13:44:27;;;;;;;14.43;4.07;;;;;;;24.90;43.59;101179.78;8350118;28;20040;-59
2023/05/27 13:48:27;;;;;;;9.53;3.63;;;;;;;24.92;44.06;101161.88;8349883;28;20550;-59
2023/05/27 13:52:28;;;;;;;11.18;3.63;;;;;;;24.82;43.55;101155.13;8351481;28;20337;-59
2023/05/27 13:56:28;;;;;;;14.73;4.45;;;;;;;24.76;42.88;101151.31;8352398;28;20033;-61
2023/05/27 14:00:30;;;;;;;14.60;4.15;;;;;;;25.09;43.44;101140.09;8350686;28;20041;-61
2023/05/27 14:04:32;;;;;;;15.02;4.13;;;;;;;25.11;42.99;101135.22;8351675;28;20174;-61
2023/05/27 14:08:33;;;;;;;10.18;3.55;;;;;;;25.09;41.84;101133.75;8351081;28;20041;-61
2023/05/27 14:12:33;;;;;;;13.52;3.70;;;;;;;24.97;42.12;101136.31;8345832;28;20127;-59
2023/05/27 14:16:33;;;;;;;9.02;3.38;;;;;;;25.07;43.17;101139.50;8348625;28;20305;-59
2023/05/27 14:20:34;;;;;;;7.90;3.30;;;;;;;24.85;40.67;101125.09;8348588;28;20041;-59
2023/05/27 14:24:35;;;;;;;8.10;3.17;;;;;;;24.95;41.41;101113.59;8349282;28;20331;-59
2023/05/27 14:28:36;;;;;;;6.55;3.05;;;;;;;25.41;43.18;101100.38;8348150;28;20072;-60
2023/05/27 14:32:36;;;;;;;10.95;3.60;;;;;;;25.37;39.93;101092.72;8346688;28;20039;-58
2023/05/27 14:36:37;;;;;;;9.95;3.63;;;;;;;25.21;42.72;101094.06;8350806;28;20296;-59
2023/05/27 14:40:38;;;;;;;10.83;4.03;;;;;;;25.15;43.63;101092.19;8349766;28;20045;-59
2023/05/27 14:44:38;;;;;;;9.77;3.88;;;;;;;25.05;44.03;101091.81;8347986;28;20307;-59
2023/05/27 14:48:38;;;;;;;6.30;3.50;;;;;;;25.06;38.28;101082.44;8348038;28;20083;-59
2023/05/27 14:52:39;;;;;;;9.93;3.63;;;;;;;25.43;41.19;101076.06;8338894;28;20718;-59
2023/05/27 14:56:39;;;;;;;11.27;4.05;;;;;;;25.17;42.89;101075.34;8343812;28;20650;-58
2023/05/27 15:00:42;;;;;;;6.85;2.90;;;;;;;25.32;38.68;101074.03;8342104;28;20321;-59
2023/05/27 15:04:42;;;;;;;9.90;3.22;;;;;;;25.23;38.29;101086.41;8342100;28;20503;-59
2023/05/27 15:08:43;;;;;;;9.38;3.00;;;;;;;25.19;37.62;101073.22;8330024;28;20452;-58
2023/05/27 15:12:46;;;;;;;8.10;2.92;;;;;;;25.24;39.54;101074.25;8343647;28;20053;-59
2023/05/27 15:16:46;;;;;;;8.77;2.77;;;;;;;25.27;37.69;101065.50;8330778;28;20531;-59
2023/05/27 15:20:47;;;;;;;8.52;3.60;;;;;;;25.75;39.20;101063.91;8331944;28;20072;-59
2023/05/27 15:24:48;;;;;;;6.85;3.20;;;;;;;25.63;41.58;101070.38;8321058;28;20045;-59
2023/05/27 15:28:48;;;;;;;8.45;3.08;;;;;;;25.37;37.99;101059.50;8327190;28;20033;-60
2023/05/27 15:32:49;;;;;;;9.32;3.38;;;;;;;25.50;38.63;101060.25;8341527;28;20060;-59
2023/05/27 15:36:49;;;;;;;9.63;3.30;;;;;;;25.37;38.57;101046.50;8342310;28;20539;-59
2023/05/27 15:40:49;;;;;;;8.07;3.42;;;;;;;25.44;41.67;101054.75;8348675;28;20045;-60
2023/05/27 15:44:50;;;;;;;9.77;3.25;;;;;;;25.34;42.64;101044.16;8347611;28;20523;-60
2023/05/27 15:48:51;;;;;;;16.15;3.50;;;;;;;25.18;41.61;101039.13;8345501;28;20254;-60
2023/05/27 15:52:52;;;;;;;7.38;3.80;;;;;;;25.35;41.24;101043.13;8348915;28;20055;-59
2023/05/27 15:56:54;;;;;;;8.88;3.22;;;;;;;25.12;41.93;101028.97;8347068;28;20049;-59
2023/05/27 16:00:54;;;;;;;7.13;2.92;;;;;;;25.39;39.41;101030.50;8347235;28;20037;-59
2023/05/27 16:04:55;;;;;;;7.38;3.60;;;;;;;25.52;40.79;101030.41;8320713;28;20057;-59
2023/05/27 16:08:55;;;;;;;11.50;3.63;;;;;;;25.23;41.88;101025.50;8322559;28;20098;-59
2023/05/27 16:12:57;;;;;;;11.40;3.43;;;;;;;25.26;43.27;101013.97;8343809;28;20507;-63
2023/05/27 16:16:57;;;;;;;9.25;3.30;;;;;;;25.30;42.25;101015.22;8347130;28;20314;-64
2023/05/27 16:20:58;;;;;;;10.52;4.18;;;;;;;25.46;43.33;101020.22;8348412;28;20041;-64
2023/05/27 16:24:58;;;;;;;10.82;3.67;;;;;;;25.61;43.82;101008.84;8342696;28;20527;-63
2023/05/27 16:28:59;;;;;;;9.75;3.97;;;;;;;25.47;43.48;100999.78;8341111;28;20064;-64
2023/05/27 16:32:59;;;;;;;11.88;3.95;;;;;;;25.18;45.84;101005.94;8345167;28;20044;-64
2023/05/27 16:36:59;;;;;;;9.17;4.00;;;;;;;25.12;44.46;100998.50;8351779;28;20068;-63
2023/05/27 16:41:00;;;;;;;10.48;4.05;;;;;;;24.85;45.99;100999.75;8351793;28;20278;-64
2023/05/27 16:45:02;;;;;;;11.40;4.53;;;;;;;25.20;46.54;100998.25;8342790;28;20345;-64
2023/05/27 16:49:02;;;;;;;11.45;5.68;;;;;;;25.10;46.32;100991.50;8347120;28;20115;-63
2023/05/27 16:53:03;;;;;;;7.07;3.78;;;;;;;24.98;45.59;100988.63;8344089;28;20048;-62
2023/05/27 16:57:04;;;;;;;12.32;5.05;;;;;;;25.19;48.07;100985.50;8334662;28;20918;-63
2023/05/27 17:01:04;;;;;;;13.43;4.82;;;;;;;25.41;48.84;100984.06;8334087;28;20037;-60
2023/05/27 17:05:05;;;;;;;12.65;4.68;;;;;;;25.17;48.33;100982.09;8349777;28;20087;-60
2023/05/27 17:09:06;;;;;;;14.77;4.43;;;;;;;25.16;46.78;100980.41;8351080;28;20563;-59
2023/05/27 17:13:07;;;;;;;11.73;4.32;;;;;;;24.92;49.21;100981.22;8352247;28;20116;-59
2023/05/27 17:17:08;;;;;;;15.48;4.93;;;;;;;24.82;49.25;100972.53;8343522;28;20492;-59
2023/05/27 17:21:09;;;;;;;14.82;5.15;;;;;;;24.84;50.27;100975.94;8326584;28;20036;-59
2023/05/27 17:25:09;;;;;;;13.85;5.38;;;;;;;24.81;50.13;100968.06;8343772;28;20036;-60
2023/05/27 17:29:10;;;;;;;12.98;5.25;;;;;;;24.82;50.25;100978.91;8347658;28;20044;-60
2023/05/27 17:33:10;;;;;;;12.90;4.63;;;;;;;24.83;50.63;100979.78;8355330;28;20037;-60
2023/05/27 17:37:11;;;;;;;9.52;4.07;;;;;;;24.62;50.79;100977.31;8337081;28;20556;-60
2023/05/27 17:41:11;;;;;;;12.90;3.88;;;;;;;24.61;51.50;100970.91;8350348;28;20325;-60
2023/05/27 17:45:12;;;;;;;11.50;4.35;;;;;;;24.51;51.71;100975.22;8350695;28;20044;-60
2023/05/27 17:49:12;;;;;;;13.27;4.20;;;;;;;24.30;51.58;100969.97;8350256;28;20072;-60
2023/05/27 17:53:13;;;;;;;15.00;5.53;;;;;;;24.28;52.88;100983.19;8352003;28;20063;-60
2023/05/27 17:57:13;;;;;;;11.80;4.53;;;;;;;24.23;52.23;100974.69;8352154;28;20045;-60
2023/05/27 18:01:14;;;;;;;12.48;4.25;;;;;;;24.15;52.29;100969.44;8351198;28;20063;-60
2023/05/27 18:05:14;;;;;;;16.02;4.88;;;;;;;24.03;53.08;100974.75;8349765;28;20411;-58
2023/05/27 18:09:15;;;;;;;9.98;4.43;;;;;;;23.98;53.36;100979.25;8351040;28;20041;-58
2023/05/27 18:13:15;;;;;;;13.98;4.57;;;;;;;23.93;52.94;100976.22;8351741;28;20148;-57
2023/05/27 18:17:16;;;;;;;13.50;5.07;;;;;;;23.86;53.60;100986.47;8349280;28;20057;-61
2023/05/27 18:21:16;;;;;;;14.93;4.40;;;;;;;23.77;53.79;100980.31;8344954;28;20095;-61
2023/05/27 18:25:17;;;;;;;13.30;4.85;;;;;;;23.70;53.80;100981.41;8347516;28;20504;-61
2023/05/27 18:29:17;;;;;;;13.38;4.70;;;;;;;23.59;54.36;100979.25;8343194;28;20175;-61
2023/05/27 18:33:18;;;;;;;12.63;4.72;;;;;;;23.56;53.84;100979.69;8328089;28;20045;-61
2023/05/27 18:37:19;;;;;;;14.75;5.13;;;;;;;23.41;54.18;100987.34;8326430;28;20121;-61